Time;durP1;ratioP1;P1;durP2;ratioP2;P2;SDS_P1;SDS_P2;PMS_P1;PMS_P2;Temp;Humidity;BMP_temperature;BMP_pressure;BME280_temperature;BME280_humidity;BME280_pressure;Samples;Min_cycle;Max_cycle;Signal;HPM_P1;HPM_P2
2021/12/22 00:00:18;;;;;;;7.93;5.47;;;0.70;99.90;;;;;;5051304;28;20497;-75
2021/12/22 00:02:48;;;;;;;7.90;4.90;;;0.60;99.90;;;;;;5052800;28;20060;-79
2021/12/22 00:05:20;;;;;;;9.90;5.27;;;0.60;99.90;;;;;;5055619;28;20095;-76
2021/12/22 00:07:47;;;;;;;8.90;4.90;;;0.70;99.90;;;;;;5056131;28;20473;-76
2021/12/22 00:10:14;;;;;;;7.97;4.67;;;0.50;99.90;;;;;;5055849;28;20468;-76
2021/12/22 00:12:41;;;;;;;7.60;5.20;;;0.50;99.90;;;;;;5055318;28;20524;-77
2021/12/22 00:15:08;;;;;;;7.70;4.83;;;0.40;99.90;;;;;;5055878;28;20041;-75
2021/12/22 00:17:36;;;;;;;7.67;4.63;;;0.40;99.90;;;;;;5056249;28;20053;-75
2021/12/22 00:20:07;;;;;;;7.77;4.07;;;0.50;99.90;;;;;;5055646;28;20102;-78
2021/12/22 00:22:34;;;;;;;6.20;3.93;;;0.50;99.90;;;;;;5055229;28;20390;-75
2021/12/22 00:25:00;;;;;;;6.93;5.20;;;0.50;99.90;;;;;;5054537;28;20045;-74
2021/12/22 00:27:27;;;;;;;5.97;4.03;;;0.50;99.90;;;;;;5054990;28;20449;-75
2021/12/22 00:29:54;;;;;;;8.33;5.50;;;0.60;99.90;;;;;;5054880;28;20049;-76
2021/12/22 00:32:21;;;;;;;8.23;4.83;;;0.60;99.90;;;;;;5055869;28;20091;-76
2021/12/22 00:34:53;;;;;;;7.37;5.63;;;0.60;99.90;;;;;;5054788;28;20049;-75
2021/12/22 00:37:21;;;;;;;7.20;4.63;;;0.60;99.90;;;;;;5055120;28;20052;-75
2021/12/22 00:39:50;;;;;;;7.00;5.47;;;0.60;99.90;;;;;;5055029;28;20523;-76
2021/12/22 00:42:17;;;;;;;14.27;6.27;;;0.60;99.90;;;;;;5055223;28;20045;-76
2021/12/22 00:44:47;;;;;;;6.10;4.37;;;0.60;99.90;;;;;;5054450;28;20509;-74
2021/12/22 00:47:14;;;;;;;9.47;5.97;;;0.70;99.90;;;;;;5055082;28;20148;-76
2021/12/22 00:49:41;;;;;;;7.23;5.23;;;0.70;99.90;;;;;;5054498;28;20462;-75
2021/12/22 00:52:09;;;;;;;7.00;4.83;;;0.60;99.90;;;;;;5054877;28;20394;-76
2021/12/22 00:54:36;;;;;;;9.20;5.53;;;0.60;99.90;;;;;;5053918;28;20045;-77
2021/12/22 00:57:05;;;;;;;6.50;5.23;;;0.50;99.90;;;;;;5054790;28;20049;-76
2021/12/22 00:59:32;;;;;;;9.50;5.47;;;0.50;99.90;;;;;;5054474;28;20488;-76
2021/12/22 01:01:59;;;;;;;13.37;6.73;;;0.50;99.90;;;;;;5054046;28;20060;-74
2021/12/22 01:04:25;;;;;;;10.53;6.23;;;0.60;99.90;;;;;;5053640;28;20049;-75
2021/12/22 01:06:52;;;;;;;11.53;7.73;;;0.60;99.90;;;;;;5054261;28;20045;-76
2021/12/22 01:09:21;;;;;;;8.20;6.00;;;0.60;99.90;;;;;;5054286;28;20095;-77
2021/12/22 01:11:48;;;;;;;9.77;5.47;;;0.60;99.90;;;;;;5053900;28;20052;-76
2021/12/22 01:14:15;;;;;;;7.00;6.30;;;0.60;99.90;;;;;;5052885;28;20049;-77
2021/12/22 01:16:46;;;;;;;9.00;5.67;;;0.60;99.90;;;;;;5053557;28;20049;-75
2021/12/22 01:19:16;;;;;;;10.10;6.60;;;0.60;99.90;;;;;;5053784;28;20496;-75
2021/12/22 01:21:47;;;;;;;13.77;6.67;;;0.60;99.90;;;;;;5053505;28;20045;-75
2021/12/22 01:24:21;;;;;;;8.77;6.50;;;0.50;99.90;;;;;;5053099;28;20049;-75
2021/12/22 01:26:56;;;;;;;10.77;4.97;;;0.50;99.90;;;;;;5053078;28;20053;-75
2021/12/22 01:29:23;;;;;;;7.37;6.07;;;0.40;99.90;;;;;;5055478;28;20044;-75
2021/12/22 01:31:49;;;;;;;8.23;5.37;;;0.40;99.90;;;;;;5053966;28;20060;-74
2021/12/22 01:34:16;;;;;;;9.23;5.83;;;0.40;99.90;;;;;;5052900;28;20049;-75
2021/12/22 01:36:43;;;;;;;6.37;4.83;;;0.30;99.90;;;;;;5053194;28;20051;-75
2021/12/22 01:39:09;;;;;;;7.60;6.63;;;0.30;99.90;;;;;;5053768;28;20091;-76
2021/12/22 01:41:36;;;;;;;12.67;6.57;;;0.30;99.90;;;;;;5053070;28;20052;-74
2021/12/22 01:44:05;;;;;;;7.77;6.83;;;0.20;99.90;;;;;;5052736;28;20049;-75
2021/12/22 01:49:42;;;;;;;7.57;5.57;;;0.30;99.90;;;;;;5053126;28;20500;-76
2021/12/22 01:52:09;;;;;;;6.17;5.47;;;0.20;99.90;;;;;;5053166;28;20052;-75
2021/12/22 01:54:39;;;;;;;5.67;5.00;;;0.20;99.90;;;;;;5052399;28;20048;-76
2021/12/22 01:57:10;;;;;;;6.10;3.93;;;0.20;99.90;;;;;;5052788;28;20049;-77
2021/12/22 01:59:40;;;;;;;8.80;4.77;;;0.20;99.90;;;;;;5052563;28;20049;-76
2021/12/22 02:02:07;;;;;;;8.07;5.57;;;0.20;99.90;;;;;;5051873;28;20107;-77
2021/12/22 02:04:35;;;;;;;10.27;5.53;;;0.30;99.90;;;;;;5051952;28;20045;-79
2021/12/22 02:07:02;;;;;;;6.57;5.90;;;0.20;99.90;;;;;;5052761;28;20052;-76
2021/12/22 02:09:45;;;;;;;7.87;4.87;;;0.20;99.90;;;;;;5052627;28;20052;-77
2021/12/22 02:12:13;;;;;;;7.93;4.33;;;0.20;99.90;;;;;;5052310;28;20126;-80
2021/12/22 02:14:42;;;;;;;6.83;4.40;;;0.10;99.90;;;;;;5052268;28;20098;-77
2021/12/22 02:17:11;;;;;;;7.27;6.03;;;0.10;99.90;;;;;;5052771;28;20079;-76
2021/12/22 02:19:39;;;;;;;8.57;4.57;;;0.10;99.90;;;;;;5052552;28;20052;-79
2021/12/22 02:22:10;;;;;;;6.60;5.33;;;0.10;99.90;;;;;;5052517;28;20045;-78
2021/12/22 02:24:37;;;;;;;8.53;5.70;;;0.10;99.90;;;;;;5052356;28;20063;-76
2021/12/22 02:27:08;;;;;;;7.23;4.23;;;0.10;99.90;;;;;;5052176;28;20049;-79
2021/12/22 02:29:37;;;;;;;7.03;5.03;;;0.00;99.90;;;;;;5052545;28;20045;-76
2021/12/22 02:32:09;;;;;;;5.10;3.70;;;-0.10;99.90;;;;;;5052393;28;20049;-81
2021/12/22 02:34:42;;;;;;;3.13;2.75;;;-0.10;99.90;;;;;;5052354;28;20053;-76
2021/12/22 02:37:13;;;;;;;9.23;5.03;;;-0.10;99.90;;;;;;5052701;28;20508;-75
2021/12/22 02:39:46;;;;;;;9.88;5.35;;;-0.20;99.90;;;;;;5052276;28;20060;-75
2021/12/22 02:42:13;;;;;;;7.70;4.57;;;-0.20;99.90;;;;;;5052659;28;20045;-76
2021/12/22 02:44:41;;;;;;;8.87;5.13;;;-0.10;99.90;;;;;;5051895;28;20420;-76
2021/12/22 02:47:17;;;;;;;9.57;5.80;;;-0.10;99.90;;;;;;5052372;28;20041;-75
2021/12/22 02:49:44;;;;;;;6.60;5.67;;;-0.10;99.90;;;;;;5052496;28;20103;-75
2021/12/22 02:52:12;;;;;;;7.07;4.00;;;-0.20;99.90;;;;;;5052556;28;20424;-76
2021/12/22 02:54:46;;;;;;;8.50;4.63;;;-0.20;99.90;;;;;;5052958;28;20048;-77
2021/12/22 02:57:23;;;;;;;4.73;4.03;;;-0.20;99.90;;;;;;5052943;28;20049;-77
2021/12/22 03:00:10;;;;;;;10.57;6.13;;;-0.20;99.90;;;;;;5051244;28;20095;-79
2021/12/22 03:02:44;;;;;;;5.33;3.60;;;-0.10;99.90;;;;;;5052293;28;20103;-75
2021/12/22 03:05:11;;;;;;;9.63;4.87;;;-0.10;99.90;;;;;;5051695;28;20119;-78
2021/12/22 03:07:39;;;;;;;6.90;5.47;;;0.00;99.90;;;;;;5052307;28;20501;-76
2021/12/22 03:10:14;;;;;;;7.50;4.30;;;0.00;99.90;;;;;;5052695;28;20045;-76
2021/12/22 03:12:41;;;;;;;9.93;5.77;;;-0.10;99.90;;;;;;5051872;28;20056;-78
2021/12/22 03:15:10;;;;;;;5.43;4.73;;;0.00;99.90;;;;;;5051390;28;20045;-77
2021/12/22 03:17:38;;;;;;;23.40;5.47;;;0.00;99.90;;;;;;5051919;28;20139;-77
2021/12/22 03:20:06;;;;;;;7.40;6.27;;;-0.10;99.90;;;;;;5052216;28;20135;-75
2021/12/22 03:22:32;;;;;;;8.17;6.23;;;-0.10;99.90;;;;;;5050911;28;20535;-75
2021/12/22 03:25:00;;;;;;;6.10;4.83;;;0.00;99.90;;;;;;5051143;28;20053;-75
2021/12/22 03:27:27;;;;;;;9.97;6.50;;;0.00;99.90;;;;;;5051381;28;20485;-76
2021/12/22 03:29:54;;;;;;;6.80;5.50;;;0.00;99.90;;;;;;5051498;28;20044;-76
2021/12/22 03:32:21;;;;;;;7.20;4.87;;;0.00;99.90;;;;;;5051683;28;20393;-78
2021/12/22 03:34:47;;;;;;;8.40;4.90;;;0.10;99.90;;;;;;5051501;28;20049;-77
2021/12/22 03:37:14;;;;;;;11.23;6.20;;;0.10;99.90;;;;;;5051786;28;20045;-75
2021/12/22 03:39:41;;;;;;;12.97;6.20;;;0.00;99.90;;;;;;5055213;28;20045;-76
2021/12/22 03:42:13;;;;;;;7.67;4.80;;;0.00;99.90;;;;;;5055447;28;20103;-77
2021/12/22 03:44:39;;;;;;;8.10;5.22;;;0.00;99.90;;;;;;5055429;28;20052;-77
2021/12/22 03:47:07;;;;;;;17.60;6.30;;;0.10;99.90;;;;;;5055672;28;20045;-75
2021/12/22 03:49:34;;;;;;;12.17;5.63;;;0.10;99.90;;;;;;5056041;28;20048;-75
2021/12/22 03:52:01;;;;;;;5.73;4.37;;;0.10;99.90;;;;;;5056573;28;20103;-74
2021/12/22 03:54:27;;;;;;;12.53;4.23;;;0.20;99.90;;;;;;5055848;28;20070;-75
2021/12/22 03:56:54;;;;;;;7.17;5.13;;;0.20;99.90;;;;;;5056926;28;20452;-77
2021/12/22 03:59:24;;;;;;;7.50;4.87;;;0.20;99.90;;;;;;5057935;28;20048;-77
2021/12/22 04:01:51;;;;;;;7.00;5.30;;;0.20;99.90;;;;;;5056635;28;20049;-77
2021/12/22 04:04:19;;;;;;;7.17;4.43;;;0.20;99.90;;;;;;5055197;28;20052;-76
2021/12/22 04:06:46;;;;;;;10.57;5.93;;;0.20;99.90;;;;;;5055439;28;20045;-75
2021/12/22 04:09:14;;;;;;;10.40;7.17;;;0.20;99.90;;;;;;5054938;28;20573;-78
2021/12/22 04:11:41;;;;;;;12.83;5.90;;;0.20;99.90;;;;;;5054920;28;20053;-78
2021/12/22 04:14:08;;;;;;;7.77;5.20;;;0.20;99.90;;;;;;5054629;28;20041;-77
2021/12/22 04:16:36;;;;;;;8.50;4.57;;;0.20;99.90;;;;;;5055157;28;20090;-78
2021/12/22 04:19:03;;;;;;;9.30;5.30;;;0.20;99.90;;;;;;5054716;28;20053;-78
2021/12/22 04:21:30;;;;;;;6.23;4.13;;;0.20;99.90;;;;;;5054427;28;20060;-78
2021/12/22 04:23:57;;;;;;;7.30;4.90;;;0.20;99.90;;;;;;5054249;28;20084;-76
2021/12/22 04:26:26;;;;;;;6.83;5.07;;;0.20;99.90;;;;;;5054277;28;20072;-78
2021/12/22 04:28:53;;;;;;;13.20;6.57;;;0.20;99.90;;;;;;5054648;28;20057;-75
2021/12/22 04:31:20;;;;;;;8.80;5.00;;;0.10;99.90;;;;;;5054624;28;20049;-79
2021/12/22 04:33:48;;;;;;;7.87;4.70;;;0.10;99.90;;;;;;5054531;28;20186;-76
2021/12/22 04:36:14;;;;;;;6.00;3.93;;;0.20;99.90;;;;;;5054007;28;20048;-78
2021/12/22 04:38:41;;;;;;;7.50;4.17;;;0.20;99.90;;;;;;5054227;28;20041;-79
2021/12/22 04:41:08;;;;;;;7.13;5.27;;;0.20;99.90;;;;;;5054242;28;20110;-77
2021/12/22 04:43:34;;;;;;;6.37;4.47;;;0.20;99.90;;;;;;5054616;28;20045;-75
2021/12/22 04:46:01;;;;;;;5.33;3.43;;;0.10;99.90;;;;;;5053566;28;20103;-76
2021/12/22 04:48:28;;;;;;;6.07;3.70;;;0.20;99.90;;;;;;5053977;28;20048;-76
2021/12/22 04:50:56;;;;;;;5.77;3.47;;;0.20;99.90;;;;;;5053940;28;20049;-77
2021/12/22 04:53:28;;;;;;;4.23;3.83;;;0.10;99.90;;;;;;5054264;28;20144;-75
2021/12/22 04:55:55;;;;;;;4.83;2.47;;;0.10;99.90;;;;;;5053303;28;20041;-78
2021/12/22 04:58:21;;;;;;;6.23;3.50;;;0.10;99.90;;;;;;5054280;28;20060;-76
2021/12/22 05:00:48;;;;;;;5.57;3.10;;;0.20;99.90;;;;;;5053476;28;20563;-76
2021/12/22 05:03:15;;;;;;;9.63;3.03;;;0.20;99.90;;;;;;5053881;28;20052;-75
2021/12/22 05:05:41;;;;;;;3.67;3.37;;;0.10;99.90;;;;;;5052960;28;20048;-75
2021/12/22 05:08:09;;;;;;;6.57;2.60;;;0.10;99.90;;;;;;5053958;28;20045;-76
2021/12/22 05:10:36;;;;;;;4.60;2.20;;;0.00;99.90;;;;;;5054424;28;20045;-76
2021/12/22 05:13:03;;;;;;;4.13;2.73;;;0.00;99.90;;;;;;5054139;28;20057;-77
2021/12/22 05:15:37;;;;;;;8.20;2.13;;;0.10;99.90;;;;;;5053847;28;20049;-80
2021/12/22 05:18:25;;;;;;;3.80;2.80;;;0.10;99.90;;;;;;5053830;28;20056;-81
2021/12/22 05:20:53;;;;;;;3.27;2.33;;;0.10;99.90;;;;;;5053386;28;20077;-76
2021/12/22 05:23:21;;;;;;;5.07;3.43;;;0.00;99.90;;;;;;5053397;28;20452;-77
2021/12/22 05:25:48;;;;;;;3.97;2.50;;;0.00;99.90;;;;;;5053057;28;20465;-77
2021/12/22 05:28:15;;;;;;;2.67;2.20;;;0.00;99.90;;;;;;5053502;28;20551;-76
2021/12/22 05:30:41;;;;;;;5.37;2.70;;;0.00;99.90;;;;;;5057675;28;20041;-78
2021/12/22 05:33:08;;;;;;;3.67;2.70;;;0.10;99.90;;;;;;5058901;28;20076;-77
2021/12/22 05:35:35;;;;;;;5.13;2.23;;;0.00;99.90;;;;;;5058650;28;20056;-79
2021/12/22 05:38:02;;;;;;;2.23;1.90;;;-0.10;99.90;;;;;;5059518;28;20048;-79
2021/12/22 05:40:30;;;;;;;2.87;2.20;;;-0.10;99.90;;;;;;5055658;28;20049;-75
2021/12/22 05:42:58;;;;;;;6.07;2.73;;;-0.10;99.90;;;;;;5053292;28;20051;-77
2021/12/22 05:45:26;;;;;;;2.10;1.90;;;-0.10;99.90;;;;;;5053027;28;20045;-77
2021/12/22 05:47:53;;;;;;;2.60;2.40;;;-0.10;99.90;;;;;;5052811;28;20059;-77
2021/12/22 05:50:22;;;;;;;7.03;2.40;;;-0.10;99.90;;;;;;5053127;28;20489;-77
2021/12/22 05:52:49;;;;;;;2.73;2.43;;;0.00;99.90;;;;;;5053296;28;20507;-78
2021/12/22 05:55:16;;;;;;;3.67;2.67;;;-0.10;99.90;;;;;;5052410;28;20049;-76
2021/12/22 05:57:45;;;;;;;3.07;2.77;;;-0.10;99.90;;;;;;5053121;28;20049;-77
2021/12/22 06:00:15;;;;;;;11.30;2.70;;;-0.10;99.90;;;;;;5052780;28;20075;-76
2021/12/22 06:02:42;;;;;;;3.17;2.67;;;-0.10;99.90;;;;;;5052755;28;20041;-76
2021/12/22 06:05:10;;;;;;;5.87;2.73;;;-0.10;99.90;;;;;;5052160;28;20041;-76
2021/12/22 06:07:37;;;;;;;4.37;3.33;;;0.00;99.90;;;;;;5052745;28;20460;-77
2021/12/22 06:10:05;;;;;;;3.30;2.77;;;-0.10;99.90;;;;;;5052498;28;20044;-81
2021/12/22 06:12:31;;;;;;;4.13;3.17;;;-0.20;99.90;;;;;;5052705;28;20114;-77
2021/12/22 06:14:59;;;;;;;3.50;3.20;;;-0.20;99.90;;;;;;5051960;28;20094;-77
2021/12/22 06:17:26;;;;;;;9.03;4.33;;;-0.10;99.90;;;;;;5052494;28;20103;-77
2021/12/22 06:19:53;;;;;;;3.30;3.00;;;-0.10;99.90;;;;;;5052451;28;20053;-79
2021/12/22 06:22:20;;;;;;;4.00;3.60;;;-0.20;99.90;;;;;;5053473;28;20049;-77
2021/12/22 06:24:47;;;;;;;7.33;3.77;;;-0.10;99.90;;;;;;5052840;28;20612;-76
2021/12/22 06:27:14;;;;;;;6.00;4.10;;;0.00;99.90;;;;;;5052080;28;20451;-76
2021/12/22 06:29:40;;;;;;;4.47;3.17;;;-0.10;99.90;;;;;;5052400;28;20045;-76
2021/12/22 06:32:09;;;;;;;3.67;3.37;;;-0.20;99.90;;;;;;5052048;28;20131;-75
2021/12/22 06:34:35;;;;;;;10.63;4.37;;;-0.30;99.90;;;;;;5051417;28;20041;-77
2021/12/22 06:37:02;;;;;;;6.13;3.27;;;-0.40;99.90;;;;;;5052200;28;20049;-76
2021/12/22 06:39:29;;;;;;;7.07;3.83;;;-0.50;99.90;;;;;;5052433;28;20053;-77
2021/12/22 06:41:56;;;;;;;11.17;5.53;;;-0.60;99.90;;;;;;5052043;28;20421;-75
2021/12/22 06:44:23;;;;;;;7.20;4.83;;;-0.70;99.90;;;;;;5051483;28;20056;-76
2021/12/22 06:46:50;;;;;;;8.37;4.93;;;-0.80;99.90;;;;;;5052055;28;20136;-77
2021/12/22 06:49:19;;;;;;;7.07;3.57;;;-0.80;99.90;;;;;;5051899;28;20087;-76
2021/12/22 06:51:45;;;;;;;6.73;3.87;;;-0.80;99.90;;;;;;5052111;28;20049;-77
2021/12/22 06:54:13;;;;;;;7.13;3.97;;;-0.90;99.90;;;;;;5051955;28;20056;-78
2021/12/22 06:56:40;;;;;;;9.37;5.43;;;-0.90;99.90;;;;;;5052004;28;20077;-79
2021/12/22 06:59:07;;;;;;;6.57;5.27;;;-0.90;99.90;;;;;;5051987;28;20504;-78
2021/12/22 07:01:35;;;;;;;7.47;3.70;;;-1.00;99.90;;;;;;5051840;28;20056;-77
2021/12/22 07:04:03;;;;;;;8.63;5.07;;;-1.10;99.90;;;;;;5051482;28;20041;-76
2021/12/22 07:06:31;;;;;;;5.70;4.27;;;-1.20;99.90;;;;;;5051801;28;20132;-77
2021/12/22 07:08:58;;;;;;;8.33;5.60;;;-1.20;99.90;;;;;;5052580;28;20045;-77
2021/12/22 07:11:25;;;;;;;6.00;4.80;;;-1.30;99.90;;;;;;5051714;28;20045;-77
2021/12/22 07:13:53;;;;;;;7.53;5.57;;;-1.30;99.90;;;;;;5054795;28;20394;-78
2021/12/22 07:16:19;;;;;;;6.30;5.17;;;-1.40;99.90;;;;;;5056765;28;20057;-79
2021/12/22 07:18:46;;;;;;;18.27;5.23;;;-1.40;99.90;;;;;;5056709;28;20049;-77
2021/12/22 07:21:13;;;;;;;4.80;4.37;;;-1.50;99.90;;;;;;5056100;28;20512;-76
2021/12/22 07:23:41;;;;;;;8.67;5.00;;;-1.70;99.90;;;;;;5056014;28;20512;-75
2021/12/22 07:26:13;;;;;;;10.57;5.90;;;-1.70;99.90;;;;;;5055872;28;20493;-75
2021/12/22 07:28:40;;;;;;;8.43;3.93;;;-1.70;99.90;;;;;;5055895;28;20413;-75
2021/12/22 07:31:07;;;;;;;7.77;6.43;;;-1.60;99.90;;;;;;5055659;28;20045;-75
2021/12/22 07:33:34;;;;;;;7.70;4.10;;;-1.60;99.90;;;;;;5056046;28;20049;-77
2021/12/22 07:36:03;;;;;;;9.13;6.20;;;-1.50;99.90;;;;;;5056054;28;20049;-77
2021/12/22 07:38:35;;;;;;;7.47;5.70;;;-1.40;99.90;;;;;;5056247;28;20127;-81
2021/12/22 07:41:05;;;;;;;8.97;6.10;;;-1.30;99.90;;;;;;5055959;28;20048;-78
2021/12/22 07:43:32;;;;;;;7.33;4.80;;;-1.20;99.90;;;;;;5055382;28;20162;-77
2021/12/22 07:45:59;;;;;;;11.50;4.67;;;-1.10;99.90;;;;;;5054816;28;20041;-79
2021/12/22 07:48:26;;;;;;;10.07;5.80;;;-1.10;99.90;;;;;;5055568;28;20049;-77
2021/12/22 07:50:53;;;;;;;12.57;6.43;;;-1.00;99.90;;;;;;5055371;28;20539;-79
2021/12/22 07:53:20;;;;;;;8.53;5.47;;;-1.00;99.90;;;;;;5055242;28;20052;-78
2021/12/22 07:55:47;;;;;;;8.53;5.83;;;-0.90;99.90;;;;;;5055143;28;20044;-76
2021/12/22 07:58:15;;;;;;;7.17;6.13;;;-0.70;99.90;;;;;;5055241;28;20489;-79
2021/12/22 08:00:42;;;;;;;18.37;9.70;;;-0.40;99.90;;;;;;5055194;28;20139;-77
2021/12/22 08:03:11;;;;;;;6.27;4.37;;;-0.10;99.90;;;;;;5055302;28;20405;-76
2021/12/22 08:05:38;;;;;;;12.47;6.70;;;0.20;99.90;;;;;;5054502;28;20049;-77
2021/12/22 08:08:05;;;;;;;11.77;7.23;;;0.50;99.90;;;;;;5054877;28;20048;-76
2021/12/22 08:10:32;;;;;;;14.33;9.10;;;0.80;99.90;;;;;;5054924;28;20053;-77
2021/12/22 08:12:59;;;;;;;13.73;8.10;;;1.20;99.90;;;;;;5055715;28;20166;-77
2021/12/22 08:15:27;;;;;;;15.27;6.60;;;1.50;99.90;;;;;;5054158;28;20052;-76
2021/12/22 08:17:54;;;;;;;10.17;6.40;;;1.90;99.90;;;;;;5055548;28;20409;-77
2021/12/22 08:20:22;;;;;;;10.57;6.70;;;2.30;99.90;;;;;;5054805;28;20072;-79
2021/12/22 08:22:49;;;;;;;10.47;6.17;;;2.70;99.90;;;;;;5054849;28;20041;-76
2021/12/22 08:25:16;;;;;;;10.03;5.53;;;3.20;99.90;;;;;;5053573;28;20045;-78
2021/12/22 08:27:43;;;;;;;7.67;5.30;;;3.70;99.90;;;;;;5054490;28;20049;-77
2021/12/22 08:30:11;;;;;;;8.00;5.30;;;3.40;99.90;;;;;;5054701;28;20103;-79
2021/12/22 08:32:39;;;;;;;7.23;5.30;;;3.80;99.90;;;;;;5054322;28;20075;-77
2021/12/22 08:35:08;;;;;;;12.27;5.73;;;4.10;99.90;;;;;;5053636;28;20073;-76
2021/12/22 08:40:20;;;;;;;12.03;5.80;;;4.80;99.90;;;;;;5054225;28;20150;-76
2021/12/22 08:42:48;;;;;;;11.50;5.43;;;4.80;99.90;;;;;;5054067;28;20092;-77
2021/12/22 08:45:15;;;;;;;10.03;5.73;;;5.00;99.90;;;;;;5053840;28;20406;-76
2021/12/22 08:47:43;;;;;;;10.20;5.53;;;5.50;99.90;;;;;;5054066;28;20049;-78
2021/12/22 08:50:11;;;;;;;11.20;6.33;;;5.60;99.90;;;;;;5054130;28;20547;-78
2021/12/22 08:52:38;;;;;;;12.67;6.57;;;5.60;99.90;;;;;;5053872;28;20041;-77
2021/12/22 08:55:14;;;;;;;11.00;6.03;;;5.40;99.90;;;;;;5054831;28;20099;-78
2021/12/22 08:57:42;;;;;;;11.33;6.90;;;5.20;99.90;;;;;;5055672;28;20482;-76
2021/12/22 09:00:12;;;;;;;13.73;6.93;;;5.40;99.90;;;;;;5055005;28;20044;-75
2021/12/22 09:02:40;;;;;;;7.33;5.23;;;4.70;99.90;;;;;;5055204;28;20063;-76
2021/12/22 09:05:10;;;;;;;10.90;6.70;;;4.60;99.90;;;;;;5054905;28;20045;-75
2021/12/22 09:07:36;;;;;;;11.53;6.60;;;4.40;99.90;;;;;;5055332;28;20049;-75
2021/12/22 09:10:04;;;;;;;19.03;7.30;;;4.40;99.90;;;;;;5056367;28;20061;-77
2021/12/22 09:12:31;;;;;;;14.53;7.17;;;4.40;99.90;;;;;;5056367;28;20091;-75
2021/12/22 09:14:58;;;;;;;10.80;6.47;;;4.20;99.90;;;;;;5055046;28;20049;-77
2021/12/22 09:17:24;;;;;;;12.00;7.83;;;4.10;99.90;;;;;;5054460;28;20448;-76
2021/12/22 09:19:53;;;;;;;9.00;6.67;;;4.40;99.90;;;;;;5057188;28;20140;-81
2021/12/22 09:22:36;;;;;;;8.10;6.57;;;4.60;99.90;;;;;;5059471;28;20064;-77
2021/12/22 09:25:03;;;;;;;10.03;6.47;;;5.10;99.90;;;;;;5055394;28;20410;-75
2021/12/22 09:27:30;;;;;;;12.70;7.50;;;5.20;99.90;;;;;;5056172;28;20566;-80
2021/12/22 09:29:57;;;;;;;9.30;6.13;;;4.50;99.90;;;;;;5053834;28;20571;-73
2021/12/22 09:32:23;;;;;;;11.13;5.87;;;4.90;99.90;;;;;;5053803;28;20053;-74
2021/12/22 09:34:50;;;;;;;12.90;7.70;;;4.50;99.90;;;;;;5053652;28;20049;-75
2021/12/22 09:37:17;;;;;;;13.17;7.27;;;5.10;99.90;;;;;;5053419;28;20049;-73
2021/12/22 09:39:46;;;;;;;9.67;6.40;;;4.60;99.90;;;;;;5053903;28;20390;-75
2021/12/22 09:42:12;;;;;;;13.30;5.67;;;4.50;99.90;;;;;;5054292;28;20045;-72
2021/12/22 09:44:44;;;;;;;10.97;7.43;;;4.60;99.90;;;;;;5052697;28;20053;-72
2021/12/22 09:47:11;;;;;;;11.82;7.25;;;5.10;99.90;;;;;;5053066;28;20055;-73
2021/12/22 09:49:59;;;;;;;12.70;6.83;;;5.40;99.90;;;;;;5052724;28;20508;-71
2021/12/22 09:52:27;;;;;;;10.13;5.43;;;5.80;99.90;;;;;;5052991;28;20413;-72
2021/12/22 09:54:59;;;;;;;11.53;5.97;;;5.80;99.90;;;;;;5052541;28;20084;-73
2021/12/22 09:57:27;;;;;;;7.33;4.40;;;6.40;99.90;;;;;;5054289;28;20056;-76
2021/12/22 09:59:56;;;;;;;11.67;5.73;;;7.10;99.90;;;;;;5056665;28;20930;-75
2021/12/22 10:02:27;;;;;;;9.03;5.77;;;6.70;99.90;;;;;;5061851;28;20057;-76
2021/12/22 10:04:54;;;;;;;9.33;5.90;;;7.50;99.90;;;;;;5056790;28;20143;-77
2021/12/22 10:07:26;;;;;;;10.17;6.63;;;7.10;99.90;;;;;;5054753;28;20291;-76
2021/12/22 10:09:55;;;;;;;10.17;5.67;;;7.10;99.90;;;;;;5053772;28;20190;-76
2021/12/22 10:12:23;;;;;;;21.67;10.13;;;8.00;99.90;;;;;;5053383;28;20049;-75
2021/12/22 10:14:54;;;;;;;10.20;6.93;;;7.30;99.90;;;;;;5052253;28;20057;-73
2021/12/22 10:17:32;;;;;;;42.07;20.83;;;7.00;99.90;;;;;;5052620;28;20044;-74
2021/12/22 10:20:01;;;;;;;13.33;8.57;;;6.50;99.90;;;;;;5052448;28;20056;-74
2021/12/22 10:22:33;;;;;;;11.50;6.60;;;7.10;99.90;;;;;;5052868;28;20056;-76
2021/12/22 10:25:10;;;;;;;17.27;8.07;;;7.20;99.90;;;;;;5053943;28;20052;-76
2021/12/22 10:27:38;;;;;;;13.43;6.70;;;7.90;99.90;;;;;;5053509;28;20382;-74
2021/12/22 10:30:31;;;;;;;11.37;7.73;;;7.80;99.90;;;;;;5052109;28;20045;-74
2021/12/22 10:33:12;;;;;;;13.77;8.57;;;8.00;97.10;;;;;;5052208;28;20084;-73
2021/12/22 10:35:40;;;;;;;14.32;6.38;;;8.00;98.90;;;;;;5051665;28;20110;-73
2021/12/22 10:38:09;;;;;;;14.17;7.87;;;7.60;99.40;;;;;;5052056;28;20051;-73
2021/12/22 10:40:40;;;;;;;16.03;7.37;;;6.80;99.90;;;;;;5052039;28;20094;-75
2021/12/22 10:43:09;;;;;;;12.50;7.37;;;6.90;99.90;;;;;;5051980;28;20469;-74
2021/12/22 10:45:36;;;;;;;13.93;7.60;;;7.30;99.90;;;;;;5051394;28;20076;-74
2021/12/22 10:50:55;;;;;;;12.63;7.30;;;6.80;99.90;;;;;;5052150;28;20140;-75
2021/12/22 10:53:22;;;;;;;15.77;8.80;;;6.80;99.90;;;;;;5052344;28;20212;-73
2021/12/22 10:55:53;;;;;;;15.90;7.77;;;7.40;99.90;;;;;;5051872;28;20456;-75
2021/12/22 10:58:26;;;;;;;14.83;8.60;;;7.70;99.40;;;;;;5052072;28;20554;-74
2021/12/22 11:01:07;;;;;;;14.57;7.93;;;8.60;97.40;;;;;;5052375;28;20057;-73
2021/12/22 11:03:39;;;;;;;14.17;8.03;;;7.70;97.50;;;;;;5052443;28;20043;-76
2021/12/22 11:06:12;;;;;;;17.75;9.70;;;8.30;97.50;;;;;;5051065;28;20064;-73
2021/12/22 11:08:39;;;;;;;14.17;7.43;;;9.40;93.60;;;;;;5051898;28;20571;-73
2021/12/22 11:11:13;;;;;;;14.70;8.50;;;8.30;93.60;;;;;;5051788;28;20045;-74
2021/12/22 11:13:40;;;;;;;12.83;8.17;;;7.60;97.00;;;;;;5051691;28;20052;-74
2021/12/22 11:16:12;;;;;;;15.53;9.30;;;7.70;96.90;;;;;;5051172;28;20045;-74
2021/12/22 11:18:39;;;;;;;12.50;8.80;;;8.00;97.30;;;;;;5051660;28;20461;-73
2021/12/22 11:21:12;;;;;;;13.77;8.40;;;8.60;94.80;;;;;;5051802;28;20095;-74
2021/12/22 11:23:40;;;;;;;12.57;7.50;;;8.60;94.40;;;;;;5051604;28;20052;-74
2021/12/22 11:26:08;;;;;;;12.97;8.23;;;7.60;95.50;;;;;;5050971;28;20045;-75
2021/12/22 11:28:36;;;;;;;19.03;9.67;;;8.20;95.30;;;;;;5051784;28;20048;-75
2021/12/22 11:31:05;;;;;;;12.23;6.90;;;8.70;95.10;;;;;;5051534;28;20053;-74
2021/12/22 11:33:32;;;;;;;14.10;7.83;;;8.30;93.90;;;;;;5051821;28;20049;-74
2021/12/22 11:36:00;;;;;;;14.97;8.30;;;9.40;92.20;;;;;;5052189;28;20045;-73
2021/12/22 11:38:29;;;;;;;10.43;7.57;;;10.30;87.90;;;;;;5051563;28;20498;-74
2021/12/22 11:41:07;;;;;;;12.02;7.28;;;10.10;84.70;;;;;;5054500;28;20131;-73
2021/12/22 11:43:37;;;;;;;11.80;8.57;;;9.50;83.90;;;;;;5055334;28;20542;-74
2021/12/22 11:46:05;;;;;;;13.03;6.73;;;9.10;90.00;;;;;;5054702;28;20041;-74
2021/12/22 11:48:32;;;;;;;11.83;7.13;;;8.10;90.80;;;;;;5051444;28;20099;-73
2021/12/22 11:50:59;;;;;;;10.87;7.10;;;7.60;92.80;;;;;;5054994;28;20045;-73
2021/12/22 11:53:26;;;;;;;14.57;9.20;;;7.80;93.50;;;;;;5059020;28;20111;-73
2021/12/22 11:55:55;;;;;;;11.55;7.22;;;8.50;93.80;;;;;;5051155;28;20099;-74
2021/12/22 11:58:24;;;;;;;12.07;8.17;;;9.20;89.00;;;;;;5051550;28;20045;-71
2021/12/22 12:01:08;;;;;;;14.20;6.93;;;8.60;90.60;;;;;;5055153;28;20079;-73
2021/12/22 12:03:37;;;;;;;11.90;7.88;;;8.30;90.70;;;;;;5055046;28;20049;-74
2021/12/22 12:06:09;;;;;;;10.53;7.33;;;8.00;93.10;;;;;;5054332;28;20073;-74
2021/12/22 12:08:37;;;;;;;;;;;7.40;94.70;;;;;;5055197;28;20460;-73
2021/12/22 12:11:05;;;;;;;11.20;6.93;;;8.30;93.50;;;;;;5055053;28;20252;-75
2021/12/22 12:13:46;;;;;;;12.67;7.17;;;8.00;92.90;;;;;;5054920;28;20049;-74
2021/12/22 12:22:35;;;;;;;11.87;7.30;;;6.70;95.20;;;;;;5055230;28;20070;-72
2021/12/22 12:25:10;;;;;;;11.20;7.13;;;7.00;95.70;;;;;;5054324;28;20041;-72
2021/12/22 12:27:40;;;;;;;11.93;6.50;;;6.80;97.40;;;;;;5054971;28;20179;-73
2021/12/22 12:30:10;;;;;;;9.53;6.30;;;7.10;96.90;;;;;;5054863;28;20045;-74
2021/12/22 12:33:04;;;;;;;12.67;7.43;;;7.10;95.50;;;;;;5055562;28;20068;-73
2021/12/22 12:35:34;;;;;;;11.60;7.20;;;7.30;96.20;;;;;;5053866;28;20045;-73
2021/12/22 12:38:12;;;;;;;12.50;6.93;;;7.00;97.40;;;;;;5055114;28;20045;-75
2021/12/22 12:41:14;;;;;;;11.07;6.77;;;6.80;99.40;;;;;;5054738;28;20052;-73
2021/12/22 12:44:11;;;;;;;9.75;6.40;;;6.80;97.60;;;;;;5054110;28;20044;-71
2021/12/22 12:46:45;;;;;;;9.17;6.57;;;6.40;98.10;;;;;;5054467;28;20053;-74
2021/12/22 12:49:30;;;;;;;10.10;5.57;;;6.30;99.00;;;;;;5054539;28;20154;-74
2021/12/22 12:51:59;;;;;;;9.03;6.33;;;6.60;99.40;;;;;;5053897;28;20048;-74
2021/12/22 12:54:28;;;;;;;9.80;6.50;;;6.30;99.30;;;;;;5053276;28;20049;-74
2021/12/22 12:56:58;;;;;;;9.57;6.30;;;5.40;99.90;;;;;;5054018;28;20045;-75
2021/12/22 12:59:44;;;;;;;9.40;6.27;;;5.50;99.90;;;;;;5054149;28;20154;-73
2021/12/22 13:02:12;;;;;;;8.53;5.10;;;5.50;99.90;;;;;;5054821;28;20045;-73
2021/12/22 13:04:43;;;;;;;9.50;5.87;;;5.70;99.90;;;;;;5053311;28;20102;-72
2021/12/22 13:07:13;;;;;;;8.60;6.50;;;5.40;99.90;;;;;;5054076;28;20091;-73
2021/12/22 13:09:41;;;;;;;13.83;7.30;;;4.40;99.90;;;;;;5053974;28;20095;-72
2021/12/22 13:12:14;;;;;;;9.37;6.97;;;4.20;99.90;;;;;;5053671;28;20493;-73
2021/12/22 13:17:28;;;;;;;14.23;7.10;;;3.70;99.90;;;;;;5053518;28;20512;-75